TABS, Texas Automated Buoy System, NOAA HAZMAT, Ocean Observatory, Real Time Oceanographic Data Supporting Oil Spill Prevention and Response

Texas General Land Office  Texas General
 Land Office
 Oil Spill Prevention
 & Response
Texas Automated Buoy System
Real Time Ocean Observations
Supporting Oil Spill Prevention and Response since 1995
Geochemical and Environmental Research Group

TABS Buoy J -- Texas Automated Buoy System

TABS Buoy J Conditions at 04/18/2014 15:30 UTC (04/18/2014 10:30 CDT)
26° 11.4840'N   97° 3.0420'W
AA3900 DCS - sensor depth 2m
Anemometer height: 4m
Water Depth: 68 feet (20 meters)
Speed: 23.63 cm/s (0.46 kts) Direction: 177 °T (S) Water Temp: 19°C (67 °F)
System Voltage: 12.2 V Signal Strength: -1.9 dB Ping Count: 55
Wind: 3.6 m/s (6.9 kts)
          From 34°T (NE)
Air Temp: 19 °C (66 °F)
Relative Humidity:  N/A
Pressure: N/A

  


IMPORTANT: Notice to Mariners


Today's Meteorological Data (download)

   Date   |  Time  |  VEast   North    AirT  AtmPr     Gust   Comp   Tx   Ty    PAR   RelH
          |  (UTC) |  (m/s)|  (m/s)|   (°C)|  (mb) |  (m/s)|  (°M) |    |    |      |  (%) |
==========+========+=======+=======+=======+=======+=======+=======+====+====+======+======+
04/18/2014 00:00:00   -2.36   -5.28    19.0    0.00    8.69    48.6    4    0    0.0 -999.0
04/18/2014 00:30:00   -6.08   -1.62    19.0    0.00    7.84    53.7    5    0    0.0 -999.0
04/18/2014 01:00:00   -5.71   -1.35    18.9    0.00    7.35    58.6    5    0    0.0 -999.0
04/18/2014 01:30:00   -5.34   -1.00    18.9    0.00    6.92    50.5    5    0    0.0 -999.0
04/18/2014 02:00:00   -5.01   -1.34    18.9    0.00    6.42    54.1    4    0    0.0 -999.0
04/18/2014 02:30:00   -4.96   -1.68    18.9    0.00    6.54    54.5    5    0    0.0 -999.0
04/18/2014 03:00:00   -5.76   -1.85    18.9    0.00    7.95    56.5    5    0    0.0 -999.0
04/18/2014 03:30:00   -4.85   -3.17    18.9    0.00    9.07    56.1    5    0    0.0 -999.0
04/18/2014 04:00:00   -4.93   -2.17    19.0    0.00    6.55    52.9    5    0    0.0 -999.0
04/18/2014 04:30:00   -5.01   -1.80    19.1    0.00    6.55    53.0    5    0    0.0 -999.0
04/18/2014 05:00:00   -4.38   -1.48    19.0    0.00    6.23    51.7    4    0    0.0 -999.0
04/18/2014 05:30:00   -4.33   -1.77    19.0    0.00    5.76    56.2    4    0    0.0 -999.0
04/18/2014 06:00:00   -3.77   -2.24    18.9    0.00    5.55    51.0    4    0    0.0 -999.0
04/18/2014 06:30:00   -4.44    0.00    18.8    0.00    5.55    61.5    4    0    0.0 -999.0
04/18/2014 07:00:00   -2.36   -3.40    19.0    0.00    5.07    50.2    3    0    0.0 -999.0
04/18/2014 07:30:00   -1.64   -3.48    18.8    0.00    7.81    47.3    3    0    0.0 -999.0
04/18/2014 08:00:00    0.34   -5.36    18.8    0.00    7.53    44.1    3    0    0.0 -999.0
04/18/2014 08:30:00   -1.39   -3.01    18.7    0.00    4.28    44.0    3    0    0.0 -999.0
04/18/2014 09:00:00   -0.96   -3.54    18.6    0.00    4.56    32.1    3    0    0.0 -999.0
04/18/2014 09:30:00   -0.66   -3.57    18.6    0.00    4.35    27.7    3    0    0.0 -999.0
04/18/2014 10:00:00   -1.11   -3.78    18.4    0.00    4.70    29.4    3    0    0.0 -999.0
04/18/2014 10:30:00   -0.91   -3.74    18.6    0.00    4.77    22.0    3    0    0.0 -999.0
04/18/2014 11:00:00   -1.63   -3.77    18.6    0.00    5.15    27.7    3    0    0.0 -999.0
04/18/2014 11:30:00   -1.41   -4.26    18.6    0.00    5.85    33.2    3    0    0.0 -999.0
04/18/2014 12:00:00   -1.41   -3.92    18.6    0.00    5.15    26.7    3    0    0.0 -999.0
04/18/2014 12:30:00   -1.36   -3.58    18.7    0.00    7.34    28.9    3    0    0.0 -999.0
04/18/2014 13:00:00   -0.13   -4.73    18.7    0.00    8.52    29.3    3    0    0.0 -999.0
04/18/2014 13:30:00   -1.14   -3.61    18.9    0.00    4.66    23.5    3    0    0.0 -999.0
04/18/2014 14:00:00   -1.09   -2.85    18.8    0.00    3.84    25.9    3    0    0.0 -999.0
04/18/2014 14:30:00   -2.13   -3.50    18.7    0.00    5.30    32.5    3    1    0.0 -999.0
04/18/2014 15:00:00   -1.65   -3.26    18.9    0.00    4.77    21.7    3    0    0.0 -999.0
04/18/2014 15:30:00   -2.01   -2.93    19.1    0.00    4.55    34.5    3    1    0.0 -999.0